createdAt,value
2023-03-31T00:00:26.700Z,4.20
2023-03-31T00:03:29.932Z,4.07
2023-03-31T00:06:38.229Z,3.87
2023-03-31T00:09:46.512Z,4.43
2023-03-31T00:12:51.443Z,4.20
2023-03-31T00:15:59.685Z,3.83
2023-03-31T00:19:03.427Z,3.93
2023-03-31T00:22:06.951Z,4.17
2023-03-31T00:25:11.323Z,3.70
2023-03-31T00:28:15.976Z,3.80
2023-03-31T00:31:19.726Z,3.83
2023-03-31T00:34:23.136Z,4.13
2023-03-31T00:37:28.454Z,3.70
2023-03-31T00:40:31.667Z,3.77
2023-03-31T00:43:38.858Z,3.47
2023-03-31T00:46:52.629Z,3.67
2023-03-31T00:49:58.394Z,3.73
2023-03-31T00:53:04.952Z,4.00
2023-03-31T00:56:12.912Z,3.27
2023-03-31T00:59:18.960Z,3.50
2023-03-31T01:02:25.732Z,3.77
2023-03-31T01:05:33.942Z,4.00
2023-03-31T01:08:43.409Z,3.70
2023-03-31T01:11:47.875Z,3.57
2023-03-31T01:14:52.739Z,3.43
2023-03-31T01:17:57.676Z,3.50
2023-03-31T01:21:49.301Z,3.87
2023-03-31T01:25:20.038Z,3.40
2023-03-31T01:28:33.213Z,3.40
2023-03-31T01:32:09.400Z,3.40
2023-03-31T01:35:36.558Z,3.10
2023-03-31T01:39:07.482Z,3.50
2023-03-31T01:42:18.412Z,3.30
2023-03-31T01:45:34.932Z,3.77
2023-03-31T01:48:48.609Z,3.40
2023-03-31T01:52:00.372Z,3.60
2023-03-31T01:55:08.570Z,3.67
2023-03-31T01:58:18.862Z,3.00
2023-03-31T02:01:26.640Z,3.00
2023-03-31T02:04:35.117Z,3.10
2023-03-31T02:07:42.941Z,3.33
2023-03-31T02:10:48.221Z,3.33
2023-03-31T02:13:55.655Z,3.27
2023-03-31T02:17:02.356Z,3.00
2023-03-31T02:20:11.364Z,3.17
2023-03-31T02:23:17.108Z,3.47
2023-03-31T02:26:25.525Z,3.30
2023-03-31T02:29:30.439Z,3.13
2023-03-31T02:32:37.218Z,3.10
2023-03-31T02:35:41.001Z,3.30
2023-03-31T02:38:49.031Z,3.60
2023-03-31T02:41:52.419Z,3.50
2023-03-31T02:45:04.058Z,3.53
2023-03-31T02:48:08.578Z,3.33
2023-03-31T02:51:40.138Z,3.57
2023-03-31T02:55:13.962Z,3.20
2023-03-31T02:58:50.222Z,3.40
2023-03-31T03:02:08.740Z,3.43
2023-03-31T03:05:21.308Z,3.20
2023-03-31T03:08:32.847Z,3.33
2023-03-31T03:11:46.181Z,3.23
2023-03-31T03:14:54.974Z,3.53
2023-03-31T03:17:59.898Z,3.37
2023-03-31T03:21:03.470Z,3.20
2023-03-31T03:24:07.542Z,2.90
2023-03-31T03:27:10.985Z,3.30
2023-03-31T03:30:15.483Z,3.20
2023-03-31T03:33:20.441Z,3.20
2023-03-31T03:36:23.852Z,3.10
2023-03-31T03:39:27.341Z,3.13
2023-03-31T03:42:30.549Z,3.17
2023-03-31T03:45:34.201Z,3.17
2023-03-31T03:48:39.119Z,3.00
2023-03-31T03:51:42.411Z,3.00
2023-03-31T03:54:45.692Z,3.00
2023-03-31T03:57:48.787Z,2.90
2023-03-31T04:00:51.996Z,3.40
2023-03-31T04:03:56.910Z,3.30
2023-03-31T04:07:00.147Z,3.27
2023-03-31T04:10:03.355Z,2.90
2023-03-31T04:13:06.814Z,3.30
2023-03-31T04:16:09.949Z,3.10
2023-03-31T04:19:17.503Z,3.00
2023-03-31T04:22:20.711Z,3.20
2023-03-31T04:25:23.782Z,3.10
2023-03-31T04:28:26.862Z,3.43
2023-03-31T04:31:30.724Z,3.20
2023-03-31T04:34:38.189Z,3.00
2023-03-31T04:37:41.216Z,3.50
2023-03-31T04:40:44.772Z,3.23
2023-03-31T04:43:48.052Z,3.20
2023-03-31T04:46:52.492Z,3.50
2023-03-31T04:49:57.191Z,3.33
2023-03-31T04:53:03.235Z,3.63
2023-03-31T04:56:07.951Z,3.93
2023-03-31T04:59:11.369Z,2.90
2023-03-31T05:02:16.031Z,3.60
2023-03-31T05:05:20.492Z,3.30
2023-03-31T05:08:23.484Z,3.43
2023-03-31T05:11:27.372Z,3.20
2023-03-31T05:14:30.462Z,3.30
2023-03-31T05:17:34.434Z,3.70
2023-03-31T05:20:39.020Z,3.50
2023-03-31T05:23:42.441Z,3.33
2023-03-31T05:26:49.796Z,3.43
2023-03-31T05:29:52.775Z,3.33
2023-03-31T05:32:56.423Z,3.53
2023-03-31T05:36:01.216Z,3.57
2023-03-31T05:39:04.437Z,3.70
2023-03-31T05:42:07.618Z,3.37
2023-03-31T05:45:10.999Z,3.47
2023-03-31T05:48:14.377Z,3.80
2023-03-31T05:51:18.716Z,3.47
2023-03-31T05:54:22.785Z,3.47
2023-03-31T05:57:26.020Z,3.50
2023-03-31T06:00:29.500Z,3.50
2023-03-31T06:03:35.152Z,3.90
2023-03-31T06:06:39.582Z,3.23
2023-03-31T06:09:43.469Z,5.00
2023-03-31T06:12:48.468Z,4.60
2023-03-31T06:15:55.792Z,3.40
2023-03-31T06:18:59.136Z,3.50
2023-03-31T06:22:03.651Z,3.30
2023-03-31T06:25:09.716Z,3.90
2023-03-31T06:28:12.720Z,3.90
2023-03-31T06:31:17.324Z,3.20
2023-03-31T06:34:21.456Z,3.80
2023-03-31T06:37:26.135Z,3.80
2023-03-31T06:40:29.200Z,3.70
2023-03-31T06:43:32.820Z,3.80
2023-03-31T06:46:36.029Z,3.93
2023-03-31T06:49:39.374Z,3.80
2023-03-31T06:52:43.796Z,4.07
2023-03-31T06:55:46.776Z,4.87
2023-03-31T06:58:49.919Z,3.97
2023-03-31T07:01:53.297Z,3.90
2023-03-31T07:04:56.330Z,4.00
2023-03-31T07:08:01.495Z,3.63
2023-03-31T07:11:05.242Z,3.70
2023-03-31T07:14:08.812Z,3.93
2023-03-31T07:17:11.807Z,3.63
2023-03-31T07:20:16.614Z,3.67
2023-03-31T07:23:21.611Z,3.60
2023-03-31T07:26:24.925Z,3.70
2023-03-31T07:29:28.321Z,3.67
2023-03-31T07:32:31.400Z,3.70
2023-03-31T07:35:36.951Z,3.50
2023-03-31T07:38:41.880Z,3.77
2023-03-31T07:41:45.317Z,3.37
2023-03-31T07:44:48.367Z,3.70
2023-03-31T07:47:51.933Z,3.30
2023-03-31T07:50:55.152Z,3.13
2023-03-31T07:53:59.457Z,3.00
2023-03-31T07:57:04.665Z,3.30
2023-03-31T08:00:12.530Z,3.60
2023-03-31T08:03:15.832Z,3.20
2023-03-31T08:06:20.734Z,3.60
2023-03-31T08:09:25.353Z,3.80
2023-03-31T08:12:28.595Z,3.00
2023-03-31T08:15:31.688Z,3.20
2023-03-31T08:18:35.051Z,3.80
2023-03-31T08:21:38.018Z,3.30
2023-03-31T08:24:42.401Z,3.23
2023-03-31T08:27:46.707Z,3.10
2023-03-31T08:30:49.740Z,3.17
2023-03-31T08:33:52.791Z,3.57
2023-03-31T08:36:56.497Z,3.67
2023-03-31T08:40:01.322Z,2.87
2023-03-31T08:43:11.776Z,2.97
2023-03-31T08:46:18.854Z,3.23
2023-03-31T08:49:23.459Z,3.40
2023-03-31T08:52:31.615Z,3.30
2023-03-31T08:55:49.932Z,3.17
2023-03-31T08:58:55.476Z,3.20
2023-03-31T09:02:05.969Z,3.30
2023-03-31T09:05:32.710Z,3.17
2023-03-31T09:08:38.856Z,3.80
2023-03-31T09:11:49.056Z,3.40
2023-03-31T09:14:59.017Z,3.47
2023-03-31T09:18:08.292Z,3.00
2023-03-31T09:21:18.846Z,3.00
2023-03-31T09:24:27.381Z,2.90
2023-03-31T09:27:37.117Z,3.00
2023-03-31T09:30:42.644Z,3.53
2023-03-31T09:33:48.065Z,2.80
2023-03-31T09:36:51.059Z,3.10
2023-03-31T09:39:54.266Z,3.10
2023-03-31T09:43:02.596Z,3.30
2023-03-31T09:46:13.628Z,3.03
2023-03-31T09:49:19.430Z,3.40
2023-03-31T09:52:29.974Z,3.10
2023-03-31T09:55:44.205Z,4.40
2023-03-31T09:58:48.576Z,3.27
2023-03-31T10:01:55.099Z,3.30
2023-03-31T10:04:58.147Z,3.60
2023-03-31T10:08:24.251Z,3.30
2023-03-31T10:11:28.599Z,3.23
2023-03-31T10:14:42.306Z,3.33
2023-03-31T10:17:54.925Z,3.10
2023-03-31T10:20:59.920Z,2.90
2023-03-31T10:24:10.815Z,3.10
2023-03-31T10:27:23.800Z,3.63
2023-03-31T10:30:35.402Z,3.93
2023-03-31T10:33:45.476Z,3.73
2023-03-31T10:36:51.830Z,4.13
2023-03-31T10:39:59.711Z,4.97
2023-03-31T10:43:12.905Z,4.23
2023-03-31T10:46:17.348Z,3.53
2023-03-31T10:49:27.535Z,4.10
2023-03-31T10:52:45.589Z,4.07
2023-03-31T10:56:01.607Z,3.90
2023-03-31T10:59:18.013Z,4.00
2023-03-31T11:02:42.438Z,3.33
2023-03-31T11:05:50.964Z,4.07
2023-03-31T11:09:04.360Z,4.53
2023-03-31T11:12:18.089Z,4.07
2023-03-31T11:15:24.931Z,3.77
2023-03-31T11:18:44.096Z,3.57
2023-03-31T11:21:59.387Z,3.00
2023-03-31T11:25:20.715Z,3.30
2023-03-31T11:28:50.857Z,3.00
2023-03-31T11:32:00.126Z,3.17
2023-03-31T11:35:18.742Z,2.80
2023-03-31T11:38:38.466Z,2.97
2023-03-31T11:41:46.493Z,3.00
2023-03-31T11:44:54.028Z,3.07
2023-03-31T11:48:06.892Z,3.00
2023-03-31T11:51:18.088Z,3.30
2023-03-31T11:54:28.507Z,3.40
2023-03-31T11:57:34.597Z,3.10
2023-03-31T12:00:41.963Z,3.30
2023-03-31T12:03:53.731Z,3.17
2023-03-31T12:07:04.598Z,3.90
2023-03-31T12:10:18.940Z,3.80
2023-03-31T12:13:34.338Z,6.43
2023-03-31T12:16:42.453Z,4.47
2023-03-31T12:19:49.747Z,4.40
2023-03-31T12:23:16.070Z,4.50
2023-03-31T12:26:41.188Z,4.47
2023-03-31T12:29:47.843Z,4.40
2023-03-31T12:32:58.066Z,3.90
2023-03-31T12:36:15.754Z,3.70
2023-03-31T12:39:33.102Z,3.87
2023-03-31T12:43:00.565Z,3.30
2023-03-31T12:46:18.954Z,3.40
2023-03-31T12:49:35.284Z,3.13
2023-03-31T12:52:52.225Z,2.70
2023-03-31T12:55:58.790Z,2.50
2023-03-31T12:59:19.642Z,3.07
2023-03-31T13:02:27.468Z,2.83
2023-03-31T13:05:48.779Z,2.83
2023-03-31T13:09:09.400Z,3.10
2023-03-31T13:12:18.771Z,3.30
2023-03-31T13:15:22.097Z,4.37
2023-03-31T13:18:25.852Z,5.77
2023-03-31T13:21:29.273Z,4.53
2023-03-31T13:24:33.609Z,4.13
2023-03-31T13:27:39.406Z,4.13
2023-03-31T13:30:51.677Z,4.50
2023-03-31T13:33:58.431Z,5.00
2023-03-31T13:37:14.128Z,6.23
2023-03-31T13:40:33.285Z,5.67
2023-03-31T13:44:07.394Z,6.13
2023-03-31T13:47:42.027Z,5.27
2023-03-31T13:50:59.626Z,4.30
2023-03-31T13:54:33.231Z,4.40
2023-03-31T13:58:11.436Z,4.33
2023-03-31T14:01:46.090Z,3.73
2023-03-31T14:05:07.009Z,3.70
2023-03-31T14:08:14.685Z,3.43
2023-03-31T14:11:23.134Z,4.40
2023-03-31T14:14:27.295Z,4.40
2023-03-31T14:17:34.400Z,3.23
2023-03-31T14:20:50.543Z,3.13
2023-03-31T14:24:04.676Z,3.10
2023-03-31T14:27:20.687Z,2.93
2023-03-31T14:30:34.675Z,2.93
2023-03-31T14:33:47.367Z,2.57
2023-03-31T14:36:59.001Z,2.60
2023-03-31T14:40:03.863Z,2.40
2023-03-31T14:43:07.405Z,2.70
2023-03-31T14:46:11.140Z,2.40
2023-03-31T14:49:22.580Z,2.30
2023-03-31T14:52:25.957Z,3.07
2023-03-31T14:55:44.165Z,2.47
2023-03-31T14:58:55.153Z,3.00
2023-03-31T15:02:00.258Z,2.63
2023-03-31T15:05:07.565Z,2.47
2023-03-31T15:08:15.643Z,3.07
2023-03-31T15:11:20.846Z,2.73
2023-03-31T15:14:24.429Z,2.97
2023-03-31T15:17:32.383Z,2.73
2023-03-31T15:20:41.183Z,2.83
2023-03-31T15:23:44.165Z,2.93
2023-03-31T15:26:52.756Z,2.90
2023-03-31T15:29:58.418Z,2.90
2023-03-31T15:33:15.579Z,2.57
2023-03-31T15:36:23.612Z,2.70
2023-03-31T15:39:29.432Z,3.10
2023-03-31T15:42:34.245Z,2.87
2023-03-31T15:45:46.622Z,2.87
2023-03-31T15:48:54.359Z,2.83
2023-03-31T15:52:00.557Z,3.13
2023-03-31T15:55:24.063Z,2.60
2023-03-31T15:58:48.468Z,2.73
2023-03-31T16:01:53.163Z,2.80
2023-03-31T16:04:59.961Z,2.90
2023-03-31T16:08:06.070Z,2.77
2023-03-31T16:11:15.302Z,2.67
2023-03-31T16:14:21.738Z,3.00
2023-03-31T16:17:33.167Z,3.10
2023-03-31T16:20:38.559Z,2.80
2023-03-31T16:23:45.462Z,3.03
2023-03-31T16:26:49.854Z,3.37
2023-03-31T16:30:06.038Z,3.83
2023-03-31T16:33:10.828Z,3.20
2023-03-31T16:36:16.121Z,3.43
2023-03-31T16:39:20.975Z,3.17
2023-03-31T16:42:24.360Z,2.90
2023-03-31T16:45:27.258Z,3.00
2023-03-31T16:48:33.176Z,2.50
2023-03-31T16:51:36.208Z,3.87
2023-03-31T16:54:40.778Z,2.90
2023-03-31T16:57:43.839Z,3.03
2023-03-31T17:00:47.107Z,2.97
2023-03-31T17:03:50.592Z,3.33
2023-03-31T17:06:55.773Z,3.30
2023-03-31T17:10:00.334Z,2.93
2023-03-31T17:13:03.544Z,2.90
2023-03-31T17:16:16.205Z,3.07
2023-03-31T17:19:22.634Z,3.23
2023-03-31T17:22:26.040Z,3.37
2023-03-31T17:25:30.536Z,3.53
2023-03-31T17:28:34.299Z,3.60
2023-03-31T17:31:37.245Z,4.37
2023-03-31T17:34:40.432Z,3.70
2023-03-31T17:37:44.330Z,3.43
2023-03-31T17:40:48.834Z,3.30
2023-03-31T17:43:51.953Z,3.37
2023-03-31T17:46:54.998Z,3.47
2023-03-31T17:49:57.937Z,3.70
2023-03-31T17:53:08.718Z,4.00
2023-03-31T17:56:14.053Z,3.70
2023-03-31T17:59:17.162Z,3.53
2023-03-31T18:02:20.837Z,4.00
2023-03-31T18:05:23.867Z,4.40
2023-03-31T18:08:26.928Z,4.20
2023-03-31T18:11:31.873Z,4.30
2023-03-31T18:14:35.314Z,4.90
2023-03-31T18:17:38.394Z,5.10
2023-03-31T18:20:41.591Z,4.67
2023-03-31T18:23:44.651Z,4.47
2023-03-31T18:26:49.388Z,4.60
2023-03-31T18:29:52.707Z,4.20
2023-03-31T18:32:56.157Z,4.30
2023-03-31T18:35:59.428Z,4.30
2023-03-31T18:39:02.603Z,3.93
2023-03-31T18:42:07.669Z,3.80
2023-03-31T18:45:11.240Z,4.23
2023-03-31T18:48:14.597Z,3.80
2023-03-31T18:51:19.228Z,4.40
2023-03-31T18:54:22.978Z,5.20
2023-03-31T18:57:27.772Z,5.60
2023-03-31T19:00:31.060Z,6.23
2023-03-31T19:03:34.363Z,5.60
2023-03-31T19:06:37.510Z,6.27
2023-03-31T19:09:40.641Z,5.63
2023-03-31T19:12:49.357Z,9.83
2023-03-31T19:15:53.313Z,9.43
2023-03-31T19:19:08.401Z,7.63
2023-03-31T19:22:12.153Z,6.27
2023-03-31T19:25:16.604Z,6.53
2023-03-31T19:32:09.602Z,5.90
2023-03-31T19:35:16.200Z,6.47
2023-03-31T19:38:24.368Z,7.23
2023-03-31T19:41:31.039Z,7.57
2023-03-31T19:56:50.523Z,8.40
2023-03-31T20:07:29.159Z,5.63
2023-03-31T20:19:10.558Z,6.17
2023-03-31T22:20:51.620Z,5.07
2023-03-31T22:23:57.659Z,4.50
2023-03-31T22:27:09.310Z,4.60
2023-03-31T22:30:15.056Z,4.77
2023-03-31T22:33:19.196Z,4.80
2023-03-31T22:36:24.463Z,4.63
2023-03-31T22:39:28.112Z,4.83
2023-03-31T22:45:58.088Z,4.63
2023-03-31T22:49:02.524Z,4.90
2023-03-31T22:52:08.407Z,4.53
2023-03-31T22:55:14.021Z,4.37
2023-03-31T22:58:18.172Z,4.67
2023-03-31T23:04:56.209Z,4.40
2023-03-31T23:08:01.117Z,5.27
2023-03-31T23:11:06.365Z,4.50
2023-03-31T23:14:13.225Z,4.50
2023-03-31T23:17:16.531Z,4.20
2023-03-31T23:20:21.066Z,4.00
2023-03-31T23:23:26.785Z,4.00
2023-03-31T23:26:32.597Z,4.27
2023-03-31T23:29:36.355Z,4.27
2023-03-31T23:32:42.979Z,4.23
2023-03-31T23:35:51.607Z,3.97
2023-03-31T23:38:58.430Z,4.50
2023-03-31T23:42:02.635Z,4.37
2023-03-31T23:45:07.364Z,4.60
2023-03-31T23:48:13.130Z,4.20
2023-03-31T23:51:16.594Z,4.20
2023-03-31T23:54:21.773Z,3.97
2023-03-31T23:57:27.928Z,4.27
